Aviation Digital Data Service (ADDS)

Output produced by TAFs form (0649 UTC 03 September 2015)
found at http://aviationweather.gov/adds/tafs/
 
KPUB 030520Z 0306/0406 VRB05KT P6SM SCT120 SCT150 BKN200 
     FM031900 21012G22KT P6SM SCT080 SCT150 BKN200 
     FM040000 30015KT P6SM SCT080 BKN150 
     FM040300 32008KT P6SM SCT150 BKN200